createdAt,value
2019-02-21T11:44:04.516Z,298.125
2019-02-21T13:19:00.663Z,168.75
2019-02-21T13:19:08.549Z,168.75
2019-02-21T13:19:16.497Z,163.125
2019-02-21T13:19:24.420Z,157.5
2019-02-21T13:19:32.323Z,157.5
2019-02-21T13:19:40.255Z,151.875
2019-02-21T13:19:49.140Z,146.25
2019-02-21T13:19:57.622Z,140.625
2019-02-21T13:20:05.541Z,135
2019-02-21T13:20:14.425Z,135
2019-02-21T13:20:22.337Z,135
2019-02-21T13:20:30.255Z,135
2019-02-21T13:20:38.173Z,129.375
2019-02-21T13:20:46.145Z,129.375
2019-02-21T13:20:54.575Z,129.375
2019-02-21T13:21:02.453Z,129.375
2019-02-21T13:21:11.104Z,129.375
2019-02-21T13:21:19.961Z,129.375
2019-02-21T13:21:27.901Z,135
2019-02-21T13:21:35.825Z,140.625
2019-02-21T13:21:44.677Z,146.25
2019-02-21T13:21:52.627Z,146.25
2019-02-21T13:22:00.552Z,146.25
2019-02-21T13:22:09.450Z,151.875
2019-02-21T13:22:17.374Z,157.5
2019-02-21T13:22:25.334Z,163.125
2019-02-21T13:22:33.225Z,168.75
2019-02-21T13:22:41.216Z,168.75
2019-02-21T13:22:49.220Z,174.375
2019-02-21T13:22:57.172Z,174.375
2019-02-21T13:23:05.068Z,168.75
2019-02-21T13:23:14.001Z,168.75
2019-02-21T13:23:21.974Z,168.75
2019-02-21T13:23:29.960Z,168.75
2019-02-21T13:23:37.894Z,168.75
2019-02-21T13:23:47.821Z,168.75
2019-02-21T13:23:55.727Z,163.125
2019-02-21T13:24:03.612Z,168.75
2019-02-21T13:24:11.519Z,168.75
2019-02-21T13:24:19.396Z,168.75
2019-02-21T13:24:27.332Z,174.375
2019-02-21T13:24:37.238Z,168.75
2019-02-21T13:24:47.005Z,168.75
2019-02-21T13:24:54.931Z,168.75
2019-02-21T13:25:02.948Z,168.75
2019-02-21T13:25:10.851Z,168.75
2019-02-21T13:25:18.864Z,180
2019-02-21T13:25:26.826Z,174.375
2019-02-21T13:25:34.725Z,174.375
2019-02-21T13:25:45.605Z,174.375
2019-02-21T13:25:53.895Z,174.375
2019-02-21T13:26:01.868Z,174.375
2019-02-21T13:26:10.732Z,174.375
2019-02-21T13:26:18.684Z,180
2019-02-21T13:26:26.623Z,180
2019-02-21T13:26:34.506Z,180
2019-02-21T13:26:42.440Z,185.625
2019-02-21T13:26:50.491Z,185.625
